Time;durP1;ratioP1;P1;durP2;ratioP2;P2;SDS_P1;SDS_P2;PMS_P1;PMS_P2;Temp;Humidity;BMP_temperature;BMP_pressure;BME280_temperature;BME280_humidity;BME280_pressure;Samples;Min_cycle;Max_cycle;Signal;HPM_P1;HPM_P2
2021/11/08 00:01:15;;;;;;;39.30;27.10;;;;;;;6.86;82.68;97319.94;116757;1179;60434;-65
2021/11/08 00:03:47;;;;;;;23.90;17.40;;;;;;;6.81;83.28;97327.13;116910;1179;70523;-65
2021/11/08 00:06:18;;;;;;;26.00;20.40;;;;;;;6.79;82.78;97317.05;116861;1180;68430;-64
2021/11/08 00:08:47;;;;;;;25.90;17.50;;;;;;;6.72;84.39;97305.33;116771;1174;69307;-64
2021/11/08 00:11:18;;;;;;;19.90;15.40;;;;;;;6.68;83.88;97297.10;116915;1180;59615;-64
2021/11/08 00:13:48;;;;;;;22.90;15.60;;;;;;;6.67;82.73;97295.95;116834;1176;59561;-62
2021/11/08 00:19:02;;;;;;;28.50;19.90;;;;;;;6.61;83.74;97291.23;116827;1177;67645;-64
2021/11/08 00:21:34;;;;;;;24.80;18.00;;;;;;;6.56;84.46;97291.00;116844;1178;69264;-64
2021/11/08 00:24:06;;;;;;;34.20;25.10;;;;;;;6.55;83.65;97295.25;116752;1180;59545;-64
2021/11/08 00:26:36;;;;;;;21.70;15.40;;;;;;;6.50;84.99;97288.11;116996;1178;59539;-64
2021/11/08 00:29:06;;;;;;;28.00;19.50;;;;;;;6.47;83.75;97287.04;116780;1179;71204;-64
2021/11/08 00:31:35;;;;;;;;;;;;;;;6.43;84.65;97287.98;116916;1178;68306;-64
2021/11/08 00:34:05;;;;;;;22.10;17.60;;;;;;;6.41;85.10;97286.73;116867;1180;68466;-64
2021/11/08 00:36:35;;;;;;;26.30;18.90;;;;;;;6.40;85.15;97283.14;116749;1178;59609;-63
2021/11/08 00:39:06;;;;;;;28.60;20.80;;;;;;;6.41;85.83;97283.45;116768;1179;59485;-63
2021/11/08 00:41:36;;;;;;;23.70;17.70;;;;;;;6.41;86.76;97289.27;116903;1180;71154;-65
2021/11/08 00:44:07;;;;;;;19.70;16.10;;;;;;;6.43;86.12;97288.19;116942;1179;67369;-64
2021/11/08 00:46:37;;;;;;;26.30;18.50;;;;;;;6.43;85.48;97287.62;116859;1177;69017;-64
2021/11/08 00:49:09;;;;;;;16.70;12.10;;;;;;;6.43;85.28;97283.16;116884;1177;59545;-66
2021/11/08 00:51:45;;;;;;;17.00;13.10;;;;;;;6.43;84.54;97282.82;116896;1178;59576;-64
2021/11/08 00:54:15;;;;;;;20.40;15.60;;;;;;;6.44;83.73;97280.66;116935;1179;70612;-64
2021/11/08 00:56:49;;;;;;;27.70;19.20;;;;;;;6.45;84.59;97281.15;116880;1178;68403;-64
2021/11/08 00:59:20;;;;;;;27.80;20.20;;;;;;;6.43;85.55;97285.59;116817;1178;69236;-63
2021/11/08 01:01:53;;;;;;;25.70;17.50;;;;;;;6.42;86.49;97286.47;116859;1178;59538;-63
2021/11/08 01:04:25;;;;;;;25.30;17.90;;;;;;;6.41;87.58;97286.89;116754;1178;59546;-64
2021/11/08 01:07:00;;;;;;;28.10;20.10;;;;;;;6.44;87.49;97303.52;116924;1180;69822;-63
2021/11/08 01:09:30;;;;;;;22.30;15.60;;;;;;;6.42;87.11;97313.34;116922;1177;68899;-63
2021/11/08 01:12:00;;;;;;;23.30;16.70;;;;;;;6.43;85.99;97304.77;116804;1179;69243;-64
2021/11/08 01:14:30;;;;;;;35.00;26.50;;;;;;;6.45;85.33;97302.58;116708;1179;59609;-64
2021/11/08 01:17:00;;;;;;;38.40;27.30;;;;;;;6.42;86.01;97319.55;116798;1179;59546;-62
2021/11/08 01:19:30;;;;;;;28.30;18.70;;;;;;;6.39;86.75;97333.92;116863;1177;71428;-63
2021/11/08 01:22:23;;;;;;;35.50;23.90;;;;;;;6.41;86.50;97347.48;116899;1177;67523;-63
2021/11/08 01:24:55;;;;;;;29.00;20.70;;;;;;;6.40;86.73;97355.67;116864;1177;68467;-64
2021/11/08 01:27:44;;;;;;;21.00;15.90;;;;;;;6.46;86.26;97357.43;116883;1180;59539;-64
2021/11/08 01:30:28;;;;;;;30.00;21.20;;;;;;;6.50;87.47;97352.81;116767;1180;59517;-64
2021/11/08 01:33:03;;;;;;;33.50;22.90;;;;;;;6.58;86.60;97352.41;116755;1180;71512;-65
2021/11/08 01:35:42;;;;;;;25.80;19.20;;;;;;;6.63;87.64;97348.06;116860;1177;68390;-65
2021/11/08 01:40:46;;;;;;;25.40;17.80;;;;;;;6.69;86.81;97361.62;116946;1177;59538;-65
2021/11/08 01:43:16;;;;;;;23.50;18.40;;;;;;;6.74;85.72;97357.20;116785;1177;59577;-65
2021/11/08 01:45:46;;;;;;;28.00;18.50;;;;;;;6.80;85.19;97354.77;116867;1177;71349;-65
2021/11/08 01:48:16;;;;;;;21.70;17.00;;;;;;;6.83;85.21;97358.22;116722;1178;68248;-65
2021/11/08 01:50:47;;;;;;;;;;;;;;;6.85;84.89;97347.84;116887;1177;69283;-65
2021/11/08 01:53:21;;;;;;;23.30;16.60;;;;;;;6.89;84.86;97324.43;116907;1177;59500;-65
2021/11/08 01:55:52;;;;;;;29.80;20.30;;;;;;;6.88;85.59;97326.71;116949;1177;59577;-63
2021/11/08 01:58:25;;;;;;;24.70;18.50;;;;;;;6.88;85.58;97332.77;116908;1177;71182;-63
2021/11/08 02:00:56;;;;;;;20.60;14.00;;;;;;;6.92;84.80;97326.35;116905;1177;68178;-63
2021/11/08 02:03:27;;;;;;;31.10;21.30;;;;;;;6.94;84.63;97318.59;116895;1177;68465;-63
2021/11/08 02:05:58;;;;;;;19.60;14.00;;;;;;;6.94;85.90;97309.22;116918;1177;59503;-63
2021/11/08 02:08:29;;;;;;;16.00;11.80;;;;;;;6.98;84.84;97314.19;116880;1177;59551;-64
2021/11/08 02:11:00;;;;;;;28.80;20.90;;;;;;;7.01;84.28;97311.90;116944;1177;70894;-64
2021/11/08 02:13:30;;;;;;;26.50;18.50;;;;;;;7.03;84.94;97308.84;116961;1177;67511;-64
2021/11/08 02:16:01;;;;;;;19.60;15.80;;;;;;;7.06;84.68;97280.24;116965;1177;69018;-66
2021/11/08 02:18:34;;;;;;;32.30;22.70;;;;;;;7.05;85.86;97252.90;116865;1177;59540;-63
2021/11/08 02:21:07;;;;;;;36.20;26.30;;;;;;;7.01;87.32;97233.93;116914;1177;59523;-64
2021/11/08 02:23:40;;;;;;;32.30;20.70;;;;;;;7.00;87.12;97231.04;116891;1177;71379;-63
2021/11/08 02:26:15;;;;;;;25.70;17.90;;;;;;;7.03;85.80;97237.26;116775;1177;68194;-62
2021/11/08 02:28:48;;;;;;;39.20;28.50;;;;;;;7.02;86.66;97229.02;116910;1177;68595;-63
2021/11/08 02:31:23;;;;;;;26.70;18.30;;;;;;;7.01;87.02;97245.70;116779;1177;59923;-63
2021/11/08 02:33:54;;;;;;;20.70;14.40;;;;;;;7.03;85.87;97233.61;116882;1177;59532;-63
2021/11/08 02:36:24;;;;;;;31.00;22.30;;;;;;;7.07;85.21;97232.20;116914;1177;70603;-64
2021/11/08 02:38:57;;;;;;;24.80;19.00;;;;;;;7.07;86.37;97242.77;116753;1178;67706;-63
2021/11/08 02:41:28;;;;;;;23.40;16.00;;;;;;;7.08;85.72;97253.80;116913;1177;69146;-64
2021/11/08 02:44:03;;;;;;;26.00;19.80;;;;;;;7.10;85.78;97248.08;116886;1177;59518;-63
2021/11/08 02:46:39;;;;;;;22.20;15.50;;;;;;;7.12;85.49;97260.13;116717;1177;59614;-64
2021/11/08 02:49:13;;;;;;;16.40;12.80;;;;;;;7.13;84.78;97293.32;116767;1177;72489;-64
2021/11/08 02:51:47;;;;;;;29.30;21.60;;;;;;;7.14;84.97;97313.73;116946;1177;68233;-63
2021/11/08 02:54:28;;;;;;;27.40;20.50;;;;;;;7.12;86.76;97304.83;116927;1177;69411;-64
2021/11/08 02:56:59;;;;;;;16.50;11.20;;;;;;;7.14;86.26;97322.42;116815;1178;59550;-64
2021/11/08 02:59:31;;;;;;;26.70;18.70;;;;;;;7.17;85.33;97329.17;116936;1177;59577;-65
2021/11/08 03:02:03;;;;;;;20.10;14.50;;;;;;;7.19;86.37;97314.11;116932;1177;69566;-63
2021/11/08 03:04:38;;;;;;;22.00;16.50;;;;;;;7.23;85.39;97307.79;116941;1177;67689;-65
2021/11/08 03:07:11;;;;;;;37.00;26.30;;;;;;;7.22;87.12;97345.46;116894;1177;68236;-63
2021/11/08 03:09:48;;;;;;;34.60;25.80;;;;;;;7.07;88.34;97345.16;116917;1177;59526;-63
2021/11/08 03:12:24;;;;;;;36.00;24.40;;;;;;;7.11;87.78;97345.64;116907;1177;59546;-63
2021/11/08 03:15:27;;;;;;;44.10;28.70;;;;;;;7.04;88.41;97372.91;116990;1177;71393;-63
2021/11/08 03:18:07;;;;;;;28.50;20.00;;;;;;;7.01;88.80;97347.80;116868;1177;68378;-64
2021/11/08 03:20:38;;;;;;;25.00;18.10;;;;;;;7.07;87.74;97330.98;116891;1177;69206;-64
2021/11/08 03:23:08;;;;;;;34.40;24.70;;;;;;;7.10;87.96;97317.23;116909;1177;59865;-63
2021/11/08 03:25:57;;;;;;;38.50;26.60;;;;;;;7.11;88.79;97314.39;116930;1177;59950;-64
2021/11/08 03:28:28;;;;;;;22.30;15.50;;;;;;;7.13;88.75;97342.17;116925;1177;70563;-63
2021/11/08 03:30:58;;;;;;;24.90;19.60;;;;;;;7.17;87.99;97338.22;116777;1177;67474;-65
2021/11/08 03:33:29;;;;;;;20.20;14.20;;;;;;;7.21;87.30;97348.99;116882;1177;69230;-63
2021/11/08 03:36:00;;;;;;;21.90;15.50;;;;;;;7.25;87.37;97348.44;116852;1177;60645;-63
2021/11/08 03:38:36;;;;;;;29.50;21.10;;;;;;;7.28;87.23;97330.91;116910;1176;59487;-64
2021/11/08 03:41:08;;;;;;;34.40;24.50;;;;;;;7.31;87.51;97330.77;116874;1177;70622;-63
2021/11/08 03:43:39;;;;;;;24.70;17.20;;;;;;;7.34;86.70;97361.73;116918;1177;68198;-63
2021/11/08 03:46:10;;;;;;;29.90;20.40;;;;;;;7.34;87.18;97373.91;116895;1177;68435;-63
2021/11/08 03:48:41;;;;;;;32.00;22.30;;;;;;;7.26;87.80;97382.86;116782;1177;59530;-65
2021/11/08 03:51:12;;;;;;;24.30;16.50;;;;;;;7.27;87.22;97383.66;116725;1180;59542;-64
2021/11/08 03:53:41;;;;;;;22.40;15.40;;;;;;;7.32;86.31;97374.20;116937;1177;72662;-64
2021/11/08 03:56:11;;;;;;;30.70;21.30;;;;;;;7.33;86.17;97370.68;116773;1180;68141;-63
2021/11/08 03:58:41;;;;;;;25.00;15.70;;;;;;;7.32;86.73;97366.02;116908;1177;69378;-63
2021/11/08 04:01:11;;;;;;;22.90;15.20;;;;;;;7.35;86.14;97356.14;116890;1177;59529;-63
2021/11/08 04:03:41;;;;;;;33.40;22.60;;;;;;;7.38;85.89;97353.52;116934;1177;59638;-63
2021/11/08 04:06:11;;;;;;;;;;;;;;;7.43;85.75;97346.84;116791;1180;70619;-63
2021/11/08 04:08:41;;;;;;;22.30;15.30;;;;;;;7.44;85.34;97352.15;116807;1179;68316;-63
2021/11/08 04:11:11;;;;;;;25.10;18.30;;;;;;;7.44;85.14;97353.86;116868;1177;68442;-64
2021/11/08 04:13:42;;;;;;;30.00;21.00;;;;;;;7.43;85.65;97357.77;116912;1177;59556;-65
2021/11/08 04:16:14;;;;;;;25.00;18.20;;;;;;;7.39;87.19;97368.69;116915;1176;59553;-64
2021/11/08 04:18:51;;;;;;;17.80;12.90;;;;;;;7.40;86.34;97360.34;116890;1177;71378;-64
2021/11/08 04:21:22;;;;;;;16.70;12.00;;;;;;;7.43;86.01;97358.45;116932;1177;66938;-63
2021/11/08 04:23:52;;;;;;;20.70;14.90;;;;;;;7.45;85.54;97372.04;116869;1177;69207;-63
2021/11/08 04:26:25;;;;;;;33.20;24.60;;;;;;;7.47;85.77;97370.14;116888;1177;59536;-63
2021/11/08 04:29:05;;;;;;;23.10;16.70;;;;;;;7.48;87.28;97370.44;116883;1178;59549;-63
2021/11/08 04:31:37;;;;;;;21.50;14.00;;;;;;;7.49;86.82;97377.50;116897;1177;70866;-63
2021/11/08 04:34:23;;;;;;;24.00;18.80;;;;;;;7.50;86.03;97379.67;116919;1177;67808;-64
2021/11/08 04:40:00;;;;;;;21.80;15.40;;;;;;;7.56;85.29;97400.27;116817;1178;59548;-64
2021/11/08 04:50:42;;;;;;;20.40;14.20;;;;;;;7.57;86.78;97407.52;116698;1179;69286;-63
2021/11/08 05:31:49;;;;;;;16.20;12.10;;;;;;;7.87;84.91;97449.24;116820;1178;69364;-64
2021/11/08 05:34:18;;;;;;;15.90;11.90;;;;;;;7.89;84.55;97452.06;116787;1177;59545;-63
2021/11/08 05:36:48;;;;;;;17.30;12.50;;;;;;;7.90;84.56;97456.33;116788;1177;59478;-63
2021/11/08 05:39:17;;;;;;;23.00;16.80;;;;;;;7.92;84.86;97465.91;116715;1177;70709;-64
2021/11/08 05:41:48;;;;;;;23.80;16.10;;;;;;;7.92;86.25;97476.50;116767;1177;67641;-64
2021/11/08 05:44:17;;;;;;;32.90;21.80;;;;;;;7.94;85.81;97484.89;116866;1177;69297;-64
2021/11/08 05:46:46;;;;;;;24.70;17.70;;;;;;;7.92;86.94;97484.98;116864;1177;59509;-63
2021/11/08 05:49:15;;;;;;;17.70;12.50;;;;;;;7.97;85.60;97479.17;116869;1177;59539;-63
2021/11/08 05:51:45;;;;;;;24.70;16.00;;;;;;;8.03;85.45;97497.55;116714;1180;71405;-63
2021/11/08 05:54:14;;;;;;;22.70;16.30;;;;;;;8.06;85.71;97497.67;116891;1177;67990;-62
2021/11/08 06:49:47;;;;;;;10.90;7.70;;;;;;;8.65;84.35;97537.11;116885;1178;68079;-64
2021/11/08 06:52:18;;;;;;;9.60;6.40;;;;;;;8.64;84.60;97533.38;116792;1177;68271;-64
2021/11/08 06:54:49;;;;;;;9.30;6.20;;;;;;;8.64;84.62;97537.55;116867;1177;59568;-65
2021/11/08 06:57:19;;;;;;;9.70;6.80;;;;;;;8.66;84.13;97544.51;116933;1177;59525;-65
2021/11/08 06:59:50;;;;;;;8.80;5.40;;;;;;;8.67;83.99;97548.42;116847;1177;71406;-65
2021/11/08 07:02:20;;;;;;;9.60;7.00;;;;;;;8.69;83.87;97549.73;116788;1178;67677;-65
2021/11/08 07:04:49;;;;;;;6.50;4.80;;;;;;;8.71;83.99;97545.14;116850;1170;68711;-65
2021/11/08 07:07:18;;;;;;;7.30;5.40;;;;;;;8.74;83.70;97559.86;116890;1177;59542;-66
2021/11/08 07:09:48;;;;;;;6.80;4.80;;;;;;;8.77;83.68;97557.89;116899;1176;59548;-65
2021/11/08 07:12:17;;;;;;;11.90;7.50;;;;;;;8.81;83.52;97561.51;116873;1177;71591;-66
2021/11/08 07:14:46;;;;;;;8.60;6.60;;;;;;;8.84;83.54;97558.89;116882;1177;67678;-65
2021/11/08 07:17:16;;;;;;;7.80;5.10;;;;;;;8.89;83.66;97551.63;116809;1177;69127;-63
2021/11/08 07:19:45;;;;;;;6.10;4.70;;;;;;;8.90;83.54;97535.33;116790;1177;59571;-65
2021/11/08 07:22:14;;;;;;;7.80;5.70;;;;;;;8.92;83.65;97522.03;116731;1180;59487;-65
2021/11/08 07:24:44;;;;;;;7.90;5.60;;;;;;;8.97;83.61;97510.44;116798;1177;71943;-63
2021/11/08 07:27:13;;;;;;;8.00;5.60;;;;;;;9.03;83.43;97518.02;116868;1177;68335;-64
2021/11/08 07:29:42;;;;;;;8.10;5.80;;;;;;;9.11;83.05;97534.92;116992;1177;69736;-63
2021/11/08 07:32:11;;;;;;;5.80;4.30;;;;;;;9.13;83.02;97539.59;116896;1177;59542;-65
2021/11/08 07:34:40;;;;;;;6.60;4.50;;;;;;;9.18;82.91;97543.65;116824;1177;59538;-64
2021/11/08 07:37:10;;;;;;;;;;;;;;;9.22;82.81;97547.42;116836;1177;71325;-65
2021/11/08 07:39:40;;;;;;;6.80;4.60;;;;;;;9.22;82.67;97543.75;116784;1177;67875;-65
2021/11/08 07:42:09;;;;;;;5.50;3.70;;;;;;;9.23;82.42;97546.27;116827;1177;69065;-64
2021/11/08 07:44:38;;;;;;;6.10;4.00;;;;;;;9.27;82.21;97540.16;116741;1178;59503;-64
2021/11/08 07:47:08;;;;;;;4.90;3.70;;;;;;;9.32;82.07;97529.54;116876;1177;59539;-63
2021/11/08 07:49:41;;;;;;;4.60;3.10;;;;;;;9.36;82.00;97516.02;116633;1180;70547;-63
2021/11/08 07:52:11;;;;;;;3.60;3.10;;;;;;;9.44;81.87;97508.92;116764;1177;68158;-65
2021/11/08 07:54:40;;;;;;;3.90;2.50;;;;;;;9.52;81.45;97521.74;116855;1177;69201;-64
2021/11/08 07:57:10;;;;;;;4.90;4.00;;;;;;;9.61;81.41;97527.95;116840;1177;59542;-65
2021/11/08 07:59:39;;;;;;;4.80;3.20;;;;;;;9.67;80.97;97536.56;116786;1177;59540;-65
2021/11/08 08:02:09;;;;;;;4.00;2.70;;;;;;;9.72;80.53;97538.73;116917;1177;71160;-65
2021/11/08 08:04:39;;;;;;;4.20;2.90;;;;;;;9.70;79.89;97541.26;116777;1179;68407;-63
2021/11/08 08:07:08;;;;;;;3.80;3.00;;;;;;;9.66;79.75;97549.66;116551;1179;68559;-63
2021/11/08 08:09:37;;;;;;;3.20;2.60;;;;;;;9.55;78.49;97553.90;116925;1177;59526;-64
2021/11/08 08:12:07;;;;;;;2.90;2.00;;;;;;;9.56;79.05;97554.02;116917;1177;59914;-65
2021/11/08 08:14:37;;;;;;;3.00;2.30;;;;;;;9.57;79.21;97540.58;116854;1177;69562;-63
2021/11/08 08:17:07;;;;;;;3.30;2.10;;;;;;;9.61;79.12;97522.21;116857;1177;68447;-64
2021/11/08 08:19:36;;;;;;;3.30;2.60;;;;;;;9.62;78.34;97520.23;116883;1177;67439;-62
2021/11/08 08:22:06;;;;;;;4.00;2.90;;;;;;;9.64;78.56;97521.98;116745;1177;59545;-65
2021/11/08 08:24:35;;;;;;;3.70;3.10;;;;;;;9.70;78.81;97509.72;116873;1176;59553;-65
2021/11/08 08:27:05;;;;;;;3.10;2.50;;;;;;;9.75;79.03;97503.17;116860;1177;71371;-63
2021/11/08 08:29:35;;;;;;;3.80;2.80;;;;;;;9.82;79.07;97504.77;116811;1177;67036;-63
2021/11/08 08:32:10;;;;;;;4.90;3.20;;;;;;;9.86;78.29;97493.84;116758;1177;68521;-63
2021/11/08 08:34:55;;;;;;;4.40;3.50;;;;;;;9.86;77.86;97494.73;116871;1177;59944;-63
2021/11/08 08:37:25;;;;;;;3.50;2.60;;;;;;;9.88;77.33;97497.55;116914;1177;59949;-63
2021/11/08 08:39:54;;;;;;;3.90;2.80;;;;;;;9.92;77.49;97496.38;116923;1177;71411;-63
2021/11/08 08:42:24;;;;;;;3.70;2.80;;;;;;;9.96;77.56;97517.73;116886;1177;68331;-63
2021/11/08 08:44:54;;;;;;;3.80;2.90;;;;;;;9.97;77.08;97524.84;116849;1177;67456;-65
2021/11/08 08:47:24;;;;;;;;;;;;;;;9.95;76.71;97521.29;116811;1177;59548;-64
2021/11/08 08:49:53;;;;;;;4.30;3.40;;;;;;;9.93;76.86;97523.17;116858;1177;59574;-63
2021/11/08 08:52:27;;;;;;;3.90;3.10;;;;;;;9.85;77.21;97523.39;116835;1177;71700;-63
2021/11/08 08:54:58;;;;;;;3.80;3.00;;;;;;;9.89;77.49;97523.77;116885;1177;67754;-62
2021/11/08 08:57:27;;;;;;;4.10;2.80;;;;;;;9.93;77.86;97516.52;116850;1177;68859;-63
2021/11/08 09:00:02;;;;;;;3.50;3.00;;;;;;;9.99;77.97;97519.47;116878;1177;59523;-63
2021/11/08 09:02:49;;;;;;;3.80;2.60;;;;;;;10.01;77.90;97503.63;116888;1177;59535;-65
2021/11/08 09:05:19;;;;;;;2.70;2.40;;;;;;;10.05;77.76;97488.54;116864;1177;71723;-65
2021/11/08 09:07:51;;;;;;;3.30;2.80;;;;;;;10.09;77.76;97492.61;116909;1177;68132;-65
2021/11/08 09:10:23;;;;;;;4.20;3.40;;;;;;;10.12;77.69;97498.70;116921;1177;69361;-65
2021/11/08 09:12:53;;;;;;;2.70;2.30;;;;;;;10.15;77.60;97496.91;116826;1177;59550;-62
2021/11/08 09:15:24;;;;;;;4.00;3.20;;;;;;;10.22;77.23;97515.43;116694;1177;59558;-65
2021/11/08 09:17:54;;;;;;;4.10;2.90;;;;;;;10.22;76.95;97516.84;116898;1177;71151;-64
2021/11/08 09:20:23;;;;;;;4.60;3.10;;;;;;;10.18;76.92;97509.20;116944;1177;67793;-63
2021/11/08 09:22:53;;;;;;;3.10;2.70;;;;;;;10.17;76.89;97512.61;116841;1177;69270;-65
2021/11/08 09:25:25;;;;;;;3.40;2.30;;;;;;;10.14;76.43;97522.42;116846;1177;59600;-63
2021/11/08 09:27:59;;;;;;;3.40;2.80;;;;;;;10.09;76.01;97534.20;116894;1177;59557;-63
2021/11/08 09:30:31;;;;;;;3.30;2.40;;;;;;;10.06;76.26;97534.13;116730;1179;70643;-62
2021/11/08 09:33:00;;;;;;;4.00;3.10;;;;;;;10.06;76.44;97537.38;116867;1177;67886;-65
2021/11/08 09:35:37;;;;;;;3.20;2.60;;;;;;;10.03;76.95;97537.30;116657;1178;69199;-66
2021/11/08 09:38:09;;;;;;;3.80;3.30;;;;;;;9.96;76.71;97534.77;116632;1177;59895;-63
2021/11/08 09:40:40;;;;;;;4.40;2.90;;;;;;;10.01;76.42;97543.30;116788;1177;59556;-65
2021/11/08 09:43:13;;;;;;;3.30;3.00;;;;;;;9.97;75.95;97544.80;116814;1177;70594;-65
2021/11/08 09:45:44;;;;;;;3.50;2.40;;;;;;;9.98;76.23;97548.09;116532;1177;68180;-63
2021/11/08 09:48:13;;;;;;;2.80;2.20;;;;;;;9.99;76.23;97555.81;116592;1180;68366;-64
2021/11/08 09:50:44;;;;;;;3.80;3.10;;;;;;;9.97;76.27;97563.44;116663;1178;59523;-63
2021/11/08 09:53:16;;;;;;;3.10;2.80;;;;;;;9.87;76.01;97564.98;116700;1177;59666;-65
2021/11/08 09:55:46;;;;;;;3.30;2.50;;;;;;;9.84;75.76;97570.45;116776;1178;70791;-65
2021/11/08 09:58:16;;;;;;;2.80;2.50;;;;;;;9.79;76.11;97584.20;116813;1177;68238;-63
2021/11/08 10:00:52;;;;;;;2.70;2.40;;;;;;;9.76;75.96;97585.08;116795;1177;69347;-64
2021/11/08 10:03:30;;;;;;;5.10;2.40;;;;;;;9.73;76.05;97587.50;116583;1177;59548;-65
2021/11/08 10:06:01;;;;;;;3.80;3.40;;;;;;;9.75;75.90;97599.63;116771;1177;59570;-64
2021/11/08 10:08:35;;;;;;;3.10;2.70;;;;;;;9.62;75.83;97605.82;116714;1177;72062;-65
2021/11/08 10:11:11;;;;;;;3.20;2.50;;;;;;;9.64;76.01;97608.09;116835;1177;68187;-64
2021/11/08 10:13:41;;;;;;;2.90;2.60;;;;;;;9.66;76.08;97603.48;116584;1170;69885;-64
2021/11/08 10:16:20;;;;;;;3.10;2.70;;;;;;;9.72;76.03;97599.45;116845;1177;59489;-62
2021/11/08 10:18:55;;;;;;;3.20;2.90;;;;;;;9.79;76.15;97592.70;116691;1179;59553;-63
2021/11/08 10:21:29;;;;;;;2.50;2.10;;;;;;;9.86;76.09;97596.02;116841;1177;71505;-64
2021/11/08 10:24:06;;;;;;;2.60;2.40;;;;;;;9.95;76.08;97603.30;116750;1177;67474;-65
2021/11/08 10:26:36;;;;;;;3.30;2.60;;;;;;;9.99;75.60;97599.01;116598;1178;67811;-62
2021/11/08 10:29:09;;;;;;;2.80;2.10;;;;;;;10.03;75.68;97602.38;116880;1177;59519;-61
2021/11/08 10:31:47;;;;;;;2.70;2.20;;;;;;;10.03;74.68;97598.07;116799;1177;59548;-65
2021/11/08 10:34:18;;;;;;;4.10;3.60;;;;;;;10.04;75.19;97602.70;116752;1177;71514;-65
2021/11/08 10:37:00;;;;;;;4.60;3.30;;;;;;;9.96;75.08;97607.04;116766;1177;68344;-62
2021/11/08 10:39:35;;;;;;;4.20;2.70;;;;;;;9.82;75.28;97607.45;116849;1177;69112;-64
2021/11/08 10:42:06;;;;;;;3.20;2.50;;;;;;;9.85;75.52;97611.98;116715;1180;59519;-62
2021/11/08 10:44:37;;;;;;;4.30;3.80;;;;;;;9.77;75.46;97617.23;116773;1176;59517;-64
2021/11/08 10:47:09;;;;;;;3.20;2.50;;;;;;;9.74;75.55;97625.78;116676;1177;71349;-64
2021/11/08 10:49:43;;;;;;;3.20;2.20;;;;;;;9.76;75.69;97625.64;116646;1177;67675;-65
2021/11/08 10:52:14;;;;;;;2.00;1.70;;;;;;;9.78;75.76;97624.77;116740;1177;69242;-63
2021/11/08 10:54:48;;;;;;;3.50;2.50;;;;;;;9.83;75.78;97624.78;116775;1177;59539;-65
2021/11/08 10:57:20;;;;;;;3.70;2.50;;;;;;;9.84;75.75;97625.09;116646;1179;59654;-65
2021/11/08 10:59:51;;;;;;;2.90;2.30;;;;;;;9.84;75.81;97634.30;116540;1177;71923;-65
2021/11/08 11:02:27;;;;;;;3.10;2.30;;;;;;;9.84;75.76;97632.38;116735;1177;68383;-63
2021/11/08 11:04:59;;;;;;;3.40;2.70;;;;;;;9.85;75.63;97624.33;116910;1177;68576;-63
2021/11/08 11:07:34;;;;;;;3.90;2.40;;;;;;;9.86;75.57;97616.95;116882;1177;59542;-62
2021/11/08 11:10:07;;;;;;;3.70;2.80;;;;;;;9.88;75.85;97591.19;116939;1176;59564;-64
2021/11/08 11:12:41;;;;;;;3.60;2.20;;;;;;;9.85;76.01;97597.86;116930;1177;71401;-64
2021/11/08 11:15:14;;;;;;;2.40;2.00;;;;;;;9.89;75.86;97599.70;116823;1178;67928;-64
2021/11/08 11:17:58;;;;;;;3.30;2.10;;;;;;;9.86;76.13;97596.05;116874;1177;69000;-65
2021/11/08 11:20:34;;;;;;;2.90;2.00;;;;;;;9.87;76.06;97599.61;116724;1179;59562;-64
2021/11/08 11:23:13;;;;;;;2.10;1.70;;;;;;;9.88;76.00;97607.91;116713;1180;59559;-65
2021/11/08 11:25:53;;;;;;;4.20;2.30;;;;;;;9.86;75.85;97609.25;116671;1177;69626;-64
2021/11/08 11:28:30;;;;;;;3.30;2.20;;;;;;;9.82;75.60;97613.18;116754;1177;68000;-65
2021/11/08 11:31:10;;;;;;;3.20;2.20;;;;;;;9.78;75.57;97611.89;116633;1179;69365;-64
2021/11/08 11:33:41;;;;;;;8.60;7.50;;;;;;;9.76;75.81;97603.20;116675;1179;59577;-63
2021/11/08 11:36:16;;;;;;;3.80;3.20;;;;;;;9.76;75.88;97614.13;116888;1177;59475;-65
2021/11/08 11:38:56;;;;;;;3.30;2.50;;;;;;;9.75;75.24;97623.25;116584;1177;71345;-66
2021/11/08 11:41:29;;;;;;;4.40;2.60;;;;;;;9.68;74.85;97626.85;116884;1177;68414;-62
2021/11/08 11:44:06;;;;;;;4.00;3.00;;;;;;;9.62;75.39;97635.40;116737;1179;69054;-64
2021/11/08 11:46:40;;;;;;;3.00;2.10;;;;;;;9.60;75.57;97638.16;116765;1178;59528;-64
2021/11/08 11:49:10;;;;;;;2.50;2.10;;;;;;;9.63;75.65;97638.31;116949;1177;59623;-63
2021/11/08 11:51:43;;;;;;;3.40;2.60;;;;;;;9.65;75.67;97636.59;116785;1178;71484;-64
2021/11/08 11:54:14;;;;;;;4.30;3.80;;;;;;;9.62;75.04;97639.60;116888;1177;68392;-65
2021/11/08 11:56:47;;;;;;;3.90;3.00;;;;;;;9.53;75.77;97639.98;116865;1177;70044;-64
2021/11/08 11:59:17;;;;;;;3.70;2.80;;;;;;;9.41;76.51;97632.75;116779;1177;59545;-64
2021/11/08 12:01:46;;;;;;;4.00;2.70;;;;;;;9.33;76.09;97633.27;116938;1177;59519;-64
2021/11/08 12:04:26;;;;;;;4.20;3.00;;;;;;;9.32;76.91;97629.55;116771;1177;71638;-65
2021/11/08 12:07:01;;;;;;;2.80;2.10;;;;;;;9.27;76.85;97598.88;116914;1177;68443;-65
2021/11/08 12:09:34;;;;;;;3.50;2.30;;;;;;;9.32;77.35;97599.60;116859;1177;69032;-66
2021/11/08 12:12:05;;;;;;;3.00;1.90;;;;;;;9.36;77.02;97593.97;116881;1177;59526;-65
2021/11/08 12:14:36;;;;;;;3.40;2.40;;;;;;;9.41;76.44;97599.86;116965;1177;59545;-65
2021/11/08 12:17:16;;;;;;;2.40;1.90;;;;;;;9.44;75.79;97598.84;116952;1177;70969;-65
2021/11/08 12:19:46;;;;;;;3.80;2.20;;;;;;;9.48;75.63;97589.16;116931;1177;68390;-64
2021/11/08 12:22:22;;;;;;;4.10;2.60;;;;;;;9.43;75.88;97611.41;116755;1179;69655;-63
2021/11/08 12:25:14;;;;;;;2.50;2.10;;;;;;;9.29;76.46;97617.38;116751;1179;59619;-63
2021/11/08 12:27:49;;;;;;;4.30;2.70;;;;;;;9.26;77.19;97619.66;116878;1177;59538;-63
2021/11/08 12:30:21;;;;;;;5.10;4.10;;;;;;;9.22;77.39;97623.92;116933;1177;70385;-63
2021/11/08 12:33:04;;;;;;;4.80;3.50;;;;;;;9.19;77.79;97619.91;116912;1177;68363;-66
2021/11/08 12:35:37;;;;;;;2.60;2.10;;;;;;;9.24;77.11;97618.54;116903;1178;69295;-63
2021/11/08 12:38:19;;;;;;;4.30;2.30;;;;;;;9.30;77.13;97610.73;116906;1177;59541;-64
2021/11/08 12:40:50;;;;;;;3.20;2.30;;;;;;;9.34;78.39;97587.16;116939;1177;59530;-65
2021/11/08 12:43:31;;;;;;;3.30;2.80;;;;;;;9.37;78.55;97593.36;116955;1170;71353;-64
2021/11/08 12:46:14;;;;;;;3.00;1.80;;;;;;;9.38;78.15;97601.64;116695;1177;68228;-63
2021/11/08 12:48:45;;;;;;;2.60;2.00;;;;;;;9.41;77.36;97594.30;116795;1177;69464;-64
2021/11/08 12:51:16;;;;;;;2.30;1.80;;;;;;;9.44;77.53;97599.55;116875;1177;59525;-63
2021/11/08 12:53:48;;;;;;;2.50;2.30;;;;;;;9.46;77.16;97603.93;116881;1177;59500;-65
2021/11/08 12:56:27;;;;;;;2.80;2.20;;;;;;;9.47;77.18;97600.57;116883;1178;70498;-64
2021/11/08 12:58:58;;;;;;;3.10;2.10;;;;;;;9.48;77.77;97593.70;116802;1177;68814;-64
2021/11/08 13:01:43;;;;;;;3.20;2.30;;;;;;;9.49;77.45;97594.53;116894;1177;68755;-65
2021/11/08 13:04:17;;;;;;;2.60;2.30;;;;;;;9.49;77.85;97600.92;116828;1177;59558;-63
2021/11/08 13:06:48;;;;;;;2.00;1.80;;;;;;;9.49;77.21;97600.39;116886;1177;59530;-63
2021/11/08 13:09:22;;;;;;;2.80;2.30;;;;;;;9.48;77.21;97612.48;116894;1177;71577;-64
2021/11/08 13:11:57;;;;;;;4.10;2.60;;;;;;;9.48;77.18;97606.58;116941;1177;67481;-63
2021/11/08 13:14:34;;;;;;;4.50;2.40;;;;;;;9.48;77.45;97606.95;116707;1180;69051;-65
2021/11/08 13:17:09;;;;;;;3.40;2.40;;;;;;;9.47;77.18;97621.07;116850;1177;59510;-64
2021/11/08 13:19:45;;;;;;;2.30;1.90;;;;;;;9.46;77.11;97617.14;116737;1177;59552;-63
2021/11/08 13:22:20;;;;;;;2.30;1.80;;;;;;;9.46;77.07;97624.80;116873;1177;72034;-63
2021/11/08 13:25:21;;;;;;;3.20;2.40;;;;;;;9.45;76.99;97618.78;116848;1177;68410;-63
2021/11/08 13:28:07;;;;;;;2.80;1.90;;;;;;;9.41;77.33;97605.61;116247;1182;68160;-64
2021/11/08 13:30:40;;;;;;;3.20;2.30;;;;;;;9.40;77.17;97596.64;116275;1182;59538;-63
2021/11/08 13:33:12;;;;;;;4.30;3.00;;;;;;;9.38;77.66;97582.85;116304;1182;59510;-65
2021/11/08 13:35:43;;;;;;;4.40;3.10;;;;;;;9.24;77.95;97569.17;116296;1173;71371;-63
2021/11/08 13:38:33;;;;;;;4.40;2.70;;;;;;;9.23;78.01;97593.27;116193;1182;67918;-63
2021/11/08 13:41:17;;;;;;;3.00;2.10;;;;;;;9.19;77.48;97604.75;116286;1182;69652;-63